Time;durP1;ratioP1;P1;durP2;ratioP2;P2;SDS_P1;SDS_P2;PMS_P1;PMS_P2;Temp;Humidity;BMP_temperature;BMP_pressure;BME280_temperature;BME280_humidity;BME280_pressure;Samples;Min_cycle;Max_cycle;Signal;HPM_P1;HPM_P2
2023/04/25 00:01:21;;;;;;;;;3.00;3.00;;;;;11.92;62.11;100383.19;4957010;28;45402;-62
2023/04/25 00:03:47;;;;;;;;;2.33;2.33;;;;;11.87;62.16;100379.03;4957274;28;45371;-62
2023/04/25 00:06:12;;;;;;;;;5.00;4.00;;;;;11.87;62.02;100381.69;4956973;28;45613;-62
2023/04/25 00:08:38;;;;;;;;;2.00;2.00;;;;;11.89;61.58;100379.84;4956724;28;46119;-62
2023/04/25 00:11:04;;;;;;;;;4.33;4.00;;;;;11.92;62.33;100377.91;4956917;28;45529;-61
2023/04/25 00:13:29;;;;;;;;;3.00;3.00;;;;;11.92;61.19;100366.53;4957032;28;45521;-62
2023/04/25 00:15:56;;;;;;;;;3.00;3.00;;;;;11.96;62.21;100367.25;4956858;28;45552;-62
2023/04/25 00:18:21;;;;;;;;;5.33;5.33;;;;;11.90;61.59;100363.09;4956755;28;46717;-62
2023/04/25 00:20:47;;;;;;;;;5.00;5.00;;;;;11.86;61.92;100364.16;4956582;28;45430;-62
2023/04/25 00:23:17;;;;;;;;;4.00;4.00;;;;;11.92;61.66;100363.88;4956489;28;45427;-61
2023/04/25 00:25:47;;;;;;;;;5.67;5.33;;;;;11.94;62.37;100376.06;4956682;28;45379;-62
2023/04/25 00:28:13;;;;;;;;;4.00;3.67;;;;;11.92;62.32;100363.88;4956631;28;46172;-62
2023/04/25 00:30:39;;;;;;;;;4.67;3.33;;;;;11.88;62.91;100363.16;4956625;28;45471;-61
2023/04/25 00:33:04;;;;;;;;;4.00;4.00;;;;;11.91;62.25;100370.09;4956289;28;45399;-62
2023/04/25 00:35:29;;;;;;;;;4.00;4.00;;;;;11.87;62.80;100365.88;4955499;28;45467;-61
2023/04/25 00:37:55;;;;;;;;;4.33;4.33;;;;;11.81;62.18;100364.31;4956244;28;45426;-62
2023/04/25 00:40:20;;;;;;;;;5.00;4.00;;;;;11.85;63.31;100370.34;4956579;28;45331;-62
2023/04/25 00:42:46;;;;;;;;;3.00;3.00;;;;;11.87;62.72;100368.50;4955539;28;45438;-62
2023/04/25 00:45:14;;;;;;;;;7.33;7.00;;;;;11.80;62.09;100365.25;4956333;28;45683;-61
2023/04/25 00:47:41;;;;;;;;;3.67;3.67;;;;;11.82;62.13;100376.59;4956192;28;45576;-62
2023/04/25 00:50:07;;;;;;;;;6.33;6.33;;;;;11.81;62.80;100374.00;4956206;28;45605;-61
2023/04/25 00:52:33;;;;;;;;;6.00;6.00;;;;;11.85;62.43;100372.97;4956313;28;45542;-62
2023/04/25 00:54:59;;;;;;;;;6.00;4.67;;;;;11.83;62.58;100353.72;4954779;28;45359;-62
2023/04/25 00:57:25;;;;;;;;;5.00;5.00;;;;;11.78;62.06;100364.47;4956065;28;46119;-62
2023/04/25 00:59:51;;;;;;;;;7.67;7.67;;;;;11.84;62.70;100369.44;4955012;28;45553;-62
2023/04/25 01:02:17;;;;;;;;;8.00;7.00;;;;;11.83;62.03;100362.50;4956056;28;45406;-61
2023/04/25 01:04:42;;;;;;;;;6.00;6.00;;;;;11.80;61.62;100372.31;4956347;28;45718;-62
2023/04/25 01:07:09;;;;;;;;;5.33;5.33;;;;;11.78;62.75;100368.88;4956009;28;45712;-61
2023/04/25 01:09:35;;;;;;;;;5.33;5.00;;;;;11.77;62.43;100377.69;4956129;28;45528;-61
2023/04/25 01:12:01;;;;;;;;;7.00;5.33;;;;;11.73;62.69;100377.84;4955948;28;45411;-61
2023/04/25 01:14:26;;;;;;;;;6.00;6.00;;;;;11.75;62.93;100369.88;4956127;28;45454;-62
2023/04/25 01:16:52;;;;;;;;;7.00;7.00;;;;;11.78;61.81;100371.53;4955744;28;46195;-61
2023/04/25 01:19:19;;;;;;;;;7.00;7.00;;;;;11.75;63.06;100376.94;4955985;28;45514;-61
2023/04/25 01:21:45;;;;;;;;;6.00;6.00;;;;;11.73;63.09;100372.56;4956750;28;45426;-61
2023/04/25 01:24:11;;;;;;;;;6.00;5.33;;;;;11.73;62.50;100369.06;4955844;28;45717;-61
2023/04/25 01:26:36;;;;;;;;;8.33;6.67;;;;;11.73;62.36;100367.28;4955779;28;46390;-61
2023/04/25 01:29:04;;;;;;;;;5.00;5.00;;;;;11.77;62.26;100372.44;4955692;28;45554;-61
2023/04/25 01:31:30;;;;;;;;;6.00;6.00;;;;;11.75;62.74;100359.34;4956080;28;45403;-61
2023/04/25 01:33:56;;;;;;;;;7.00;6.33;;;;;11.72;62.92;100348.94;4955488;28;45474;-61
2023/04/25 01:36:22;;;;;;;;;6.00;6.00;;;;;11.75;63.41;100364.59;4955793;28;45532;-61
2023/04/25 01:38:47;;;;;;;;;9.00;7.00;;;;;11.69;62.41;100367.53;4955866;28;45467;-62
2023/04/25 01:41:14;;;;;;;;;7.67;7.67;;;;;11.65;62.63;100363.28;4955756;28;45506;-61
2023/04/25 01:43:39;;;;;;;;;9.67;7.00;;;;;11.67;63.34;100361.44;4956509;28;45366;-61
2023/04/25 01:46:05;;;;;;;;;10.00;7.67;;;;;11.63;62.74;100359.84;4958819;28;46540;-61
2023/04/25 01:48:30;;;;;;;;;7.67;6.33;;;;;11.66;63.34;100359.72;4958143;28;45408;-61
2023/04/25 01:50:55;;;;;;;;;6.00;6.00;;;;;11.67;63.05;100369.34;4958931;28;45344;-61
2023/04/25 01:53:22;;;;;;;;;6.33;6.33;;;;;11.59;62.16;100359.16;4959107;28;45391;-62
2023/04/25 01:55:47;;;;;;;;;9.00;9.00;;;;;11.62;63.06;100363.44;4958733;28;45407;-61
2023/04/25 01:58:13;;;;;;;;;9.00;7.00;;;;;11.63;62.13;100366.00;4958357;28;49412;-61
2023/04/25 02:00:40;;;;;;;;;8.00;8.00;;;;;11.61;62.77;100361.72;4959222;28;45526;-61
2023/04/25 02:03:06;;;;;;;;;6.00;6.00;;;;;11.62;62.64;100364.28;4958631;28;45502;-60
2023/04/25 02:05:38;;;;;;;;;7.33;7.00;;;;;11.68;62.99;100369.28;4958772;28;45458;-61
2023/04/25 02:08:08;;;;;;;;;8.67;6.67;;;;;11.69;62.11;100372.78;4958425;28;45465;-61
2023/04/25 02:10:34;;;;;;;;;7.00;6.00;;;;;11.69;63.14;100371.00;4958860;28;45495;-61
2023/04/25 02:13:00;;;;;;;;;6.33;6.33;;;;;11.71;62.64;100381.47;4958959;28;45562;-61
2023/04/25 02:15:25;;;;;;;;;7.67;5.67;;;;;11.59;62.67;100369.69;4945010;28;45411;-61
2023/04/25 02:17:52;;;;;;;;;6.33;5.33;;;;;11.58;62.38;100365.34;4958611;28;45415;-61
2023/04/25 02:20:21;;;;;;;;;5.00;5.00;;;;;11.57;63.44;100376.78;4958575;28;45403;-61
2023/04/25 02:22:46;;;;;;;;;7.00;6.33;;;;;11.50;63.10;100375.34;4959125;28;45608;-61
2023/04/25 02:25:12;;;;;;;;;4.00;4.00;;;;;11.54;63.22;100374.28;4958369;28;46046;-61
2023/04/25 02:27:38;;;;;;;;;7.33;7.33;;;;;11.57;62.64;100376.78;4958331;28;45516;-61
2023/04/25 02:30:06;;;;;;;;;11.00;8.00;;;;;11.59;63.29;100376.72;4958275;28;45388;-61
2023/04/25 02:32:32;;;;;;;;;9.33;9.00;;;;;11.61;62.31;100373.13;4957456;28;45522;-61
2023/04/25 02:34:59;;;;;;;;;9.33;6.00;;;;;11.60;62.99;100376.66;4958132;28;45368;-61
2023/04/25 02:37:25;;;;;;;;;9.33;9.33;;;;;11.52;63.26;100384.03;4958186;28;45517;-61
2023/04/25 02:39:50;;;;;;;;;8.33;7.00;;;;;11.48;63.09;100383.31;4957357;28;45434;-62
2023/04/25 02:42:15;;;;;;;;;9.00;8.00;;;;;11.44;63.58;100367.69;4957975;28;49253;-61
2023/04/25 02:44:40;;;;;;;;;8.00;8.00;;;;;11.47;63.67;100376.34;4957914;28;54927;-61
2023/04/25 02:47:06;;;;;;;;;7.33;4.67;;;;;11.44;62.75;100378.22;4957979;28;50708;-61
2023/04/25 02:49:31;;;;;;;;;9.00;8.00;;;;;11.44;63.51;100383.50;4958425;28;45527;-61
2023/04/25 02:51:57;;;;;;;;;10.67;8.67;;;;;11.40;63.60;100390.69;4958200;28;45529;-61
2023/04/25 02:54:22;;;;;;;;;7.00;7.00;;;;;11.43;63.86;100387.91;4957809;28;45551;-61
2023/04/25 02:56:47;;;;;;;;;9.33;8.33;;;;;11.43;63.52;100398.44;4956808;28;45632;-61
2023/04/25 02:59:12;;;;;;;;;8.33;8.33;;;;;11.41;63.16;100392.38;4958075;28;45560;-62
2023/04/25 03:01:38;;;;;;;;;8.00;7.00;;;;;11.42;62.63;100401.16;4958197;28;45717;-61
2023/04/25 03:04:03;;;;;;;;;11.67;8.33;;;;;11.36;63.27;100399.63;4957671;28;46490;-61
2023/04/25 03:06:28;;;;;;;;;7.00;7.00;;;;;11.37;63.56;100397.88;4956734;28;45455;-61
2023/04/25 03:08:54;;;;;;;;;10.00;9.00;;;;;11.40;63.86;100392.47;4958005;28;45347;-61
2023/04/25 03:11:20;;;;;;;;;8.67;8.67;;;;;11.41;63.60;100394.16;4958058;28;45427;-61
2023/04/25 03:13:45;;;;;;;;;12.00;11.00;;;;;11.42;63.79;100390.63;4957941;28;46144;-62
2023/04/25 03:16:11;;;;;;;;;12.00;12.00;;;;;11.41;62.89;100388.91;4957693;28;45542;-61
2023/04/25 03:18:36;;;;;;;;;13.67;13.00;;;;;11.33;63.23;100386.59;4957672;28;45359;-62
2023/04/25 03:21:02;;;;;;;;;11.00;11.00;;;;;11.34;63.58;100384.78;4957758;28;45441;-61
2023/04/25 03:23:27;;;;;;;;;11.33;9.67;;;;;11.33;63.80;100383.94;4958122;28;46267;-61
2023/04/25 03:25:52;;;;;;;;;11.00;11.00;;;;;11.33;63.76;100386.59;4957616;28;45332;-61
2023/04/25 03:28:18;;;;;;;;;11.67;11.00;;;;;11.23;63.07;100393.16;4957773;28;45460;-61
2023/04/25 03:30:43;;;;;;;;;13.67;11.00;;;;;11.16;63.28;100384.66;4957472;28;45634;-61
2023/04/25 03:33:08;;;;;;;;;9.00;9.00;;;;;11.18;63.42;100382.81;4957232;28;45976;-62
2023/04/25 03:35:33;;;;;;;;;10.00;10.00;;;;;11.16;63.96;100379.41;4957130;28;45391;-61
2023/04/25 03:37:59;;;;;;;;;10.67;8.67;;;;;11.22;63.41;100381.75;4957434;28;45415;-61
2023/04/25 03:40:24;;;;;;;;;10.00;8.67;;;;;11.18;63.87;100388.09;4957582;28;45419;-61
2023/04/25 03:42:50;;;;;;;;;12.33;9.33;;;;;11.14;63.26;100388.28;4957272;28;46000;-61
2023/04/25 03:45:15;;;;;;;;;10.33;9.33;;;;;11.12;63.30;100388.31;4957089;28;46181;-61
2023/04/25 03:47:40;;;;;;;;;8.67;8.33;;;;;11.14;64.36;100391.75;4957428;28;45494;-61
2023/04/25 03:50:06;;;;;;;;;9.33;9.33;;;;;11.15;64.41;100400.50;4956753;28;55217;-61
2023/04/25 03:52:31;;;;;;;;;8.33;8.33;;;;;11.14;63.75;100390.91;4957054;28;45539;-61
2023/04/25 03:54:57;;;;;;;;;7.67;7.67;;;;;11.15;64.14;100382.06;4957158;28;45497;-61
2023/04/25 03:57:22;;;;;;;;;8.00;8.00;;;;;11.17;64.18;100383.72;4957079;28;45486;-61
2023/04/25 03:59:47;;;;;;;;;12.67;10.67;;;;;11.16;63.90;100389.06;4956875;28;45520;-61
2023/04/25 04:02:13;;;;;;;;;12.33;10.00;;;;;11.18;64.58;100385.47;4955883;28;47665;-61
2023/04/25 04:04:38;;;;;;;;;10.00;10.00;;;;;11.16;63.47;100387.28;4956765;28;45561;-61
2023/04/25 04:07:03;;;;;;;;;11.33;10.33;;;;;11.18;63.91;100392.50;4956349;28;45466;-61
2023/04/25 04:09:29;;;;;;;;;14.00;10.00;;;;;11.17;63.87;100394.25;4956966;28;45340;-61
2023/04/25 04:11:54;;;;;;;;;11.00;11.00;;;;;11.16;63.61;100394.34;4956799;28;45422;-61
2023/04/25 04:14:19;;;;;;;;;12.33;9.00;;;;;11.16;63.40;100391.69;4956987;28;45414;-61
2023/04/25 04:16:45;;;;;;;;;9.67;9.00;;;;;11.17;63.42;100396.88;4956948;28;45316;-61
2023/04/25 04:19:10;;;;;;;;;12.00;9.33;;;;;11.17;63.89;100394.25;4956935;28;45417;-61
2023/04/25 04:21:36;;;;;;;;;11.00;11.00;;;;;11.12;63.71;100401.47;4956704;28;46100;-62
2023/04/25 04:24:01;;;;;;;;;12.00;11.00;;;;;11.12;63.73;100403.25;4957329;28;45410;-61
2023/04/25 04:26:27;;;;;;;;;9.67;9.67;;;;;11.12;64.30;100408.53;4956726;28;45523;-61
2023/04/25 04:28:54;;;;;;;;;17.00;13.33;;;;;11.11;64.60;100419.97;4956791;28;45406;-61
2023/04/25 04:31:23;;;;;;;;;13.00;10.33;;;;;11.09;64.39;100414.78;4955504;28;47946;-61
2023/04/25 04:33:49;;;;;;;;;13.67;12.00;;;;;11.10;63.75;100413.88;4955109;28;45474;-61
2023/04/25 04:36:15;;;;;;;;;11.33;10.33;;;;;11.08;64.90;100426.22;4956632;28;45336;-61
2023/04/25 04:38:42;;;;;;;;;14.67;13.33;;;;;11.10;64.31;100426.19;4955405;28;45621;-61
2023/04/25 04:41:07;;;;;;;;;11.00;11.00;;;;;11.09;63.99;100422.66;4956404;28;45434;-61
2023/04/25 04:43:33;;;;;;;;;11.33;11.33;;;;;11.10;64.65;100427.03;4956536;28;45425;-62
2023/04/25 04:46:00;;;;;;;;;12.00;12.00;;;;;11.12;64.04;100442.75;4956380;28;45454;-61
2023/04/25 04:48:26;;;;;;;;;12.67;12.00;;;;;11.11;64.53;100436.63;4956602;28;45450;-61
2023/04/25 04:50:51;;;;;;;;;10.33;10.33;;;;;11.13;64.49;100441.84;4956243;28;45444;-61
2023/04/25 04:53:16;;;;;;;;;9.00;7.33;;;;;11.12;63.93;100446.22;4956347;28;45577;-61
2023/04/25 04:55:42;;;;;;;;;15.00;15.00;;;;;11.14;64.21;100448.81;4956338;28;45861;-61
2023/04/25 04:58:08;;;;;;;;;10.33;10.00;;;;;11.15;63.67;100445.25;4955864;28;45399;-61
2023/04/25 05:00:34;;;;;;;;;14.00;13.00;;;;;11.10;63.79;100449.88;4954772;28;46048;-61
2023/04/25 05:02:59;;;;;;;;;12.00;10.33;;;;;11.14;64.53;100456.72;4954746;28;45419;-61
2023/04/25 05:05:24;;;;;;;;;12.00;12.00;;;;;11.08;63.85;100454.31;4954992;28;45356;-61
2023/04/25 05:07:50;;;;;;;;;16.33;13.67;;;;;11.14;64.10;100464.59;4954701;28;45371;-61
2023/04/25 05:10:16;;;;;;;;;12.00;12.00;;;;;11.11;64.18;100470.84;4954598;28;46087;-61
2023/04/25 05:12:42;;;;;;;;;14.33;13.00;;;;;11.13;63.99;100463.75;4954672;28;45375;-61
2023/04/25 05:15:07;;;;;;;;;9.33;8.00;;;;;11.11;64.02;100465.59;4953689;28;45344;-61
2023/04/25 05:17:33;;;;;;;;;18.00;15.00;;;;;11.16;63.59;100473.31;4954698;28;45500;-61
2023/04/25 05:19:58;;;;;;;;;13.67;12.33;;;;;11.14;63.87;100473.34;4957459;28;52483;-61
2023/04/25 05:22:24;;;;;;;;;14.33;14.33;;;;;11.19;64.02;100481.94;4959041;28;45528;-61
2023/04/25 05:24:51;;;;;;;;;17.00;16.00;;;;;11.20;63.99;100490.69;4958865;28;45469;-61
2023/04/25 05:27:17;;;;;;;;;14.00;13.67;;;;;11.20;64.23;100495.94;4958455;28;45537;-61
2023/04/25 05:29:43;;;;;;;;;14.67;14.67;;;;;11.16;63.92;100494.34;4957217;28;45575;-61
2023/04/25 05:32:09;;;;;;;;;10.67;10.67;;;;;11.19;64.56;100502.97;4958366;28;45488;-61
2023/04/25 05:34:34;;;;;;;;;18.00;13.67;;;;;11.22;64.07;100502.84;4958392;28;45465;-61
2023/04/25 05:37:00;;;;;;;;;17.33;14.67;;;;;11.19;64.72;100502.13;4958018;28;45506;-61
2023/04/25 05:39:26;;;;;;;;;13.00;13.00;;;;;11.16;64.95;100520.69;4958195;28;45976;-61
2023/04/25 05:41:51;;;;;;;;;14.00;12.00;;;;;11.16;64.34;100524.16;4958068;28;45459;-61
2023/04/25 05:44:16;;;;;;;;;18.00;14.00;;;;;11.18;63.67;100524.13;4957708;28;45395;-61
2023/04/25 05:46:42;;;;;;;;;16.25;14.50;;;;;11.17;64.64;100525.88;4958239;28;45532;-61
2023/04/25 05:49:07;;;;;;;;;16.33;14.33;;;;;11.17;64.67;100538.19;4957670;28;48712;-61
2023/04/25 05:51:32;;;;;;;;;20.67;16.67;;;;;11.16;64.42;100539.97;4957748;28;50490;-62
2023/04/25 05:53:57;;;;;;;;;15.67;13.67;;;;;11.16;64.46;100539.09;4956986;28;45493;-61
2023/04/25 05:56:23;;;;;;;;;14.00;13.00;;;;;11.18;64.89;100545.19;4958108;28;45303;-61
2023/04/25 05:58:48;;;;;;;;;18.00;16.00;;;;;11.20;65.09;100549.47;4918559;28;1147723;-61
2023/04/25 06:01:14;;;;;;;;;17.00;14.75;;;;;11.23;64.59;100554.59;4958528;28;45518;-61
2023/04/25 06:03:42;;;;;;;;;19.25;17.25;;;;;11.21;64.99;100553.81;4959159;28;45521;-61
2023/04/25 06:06:08;;;;;;;;;18.00;18.00;;;;;11.22;64.40;100562.56;4958666;28;45547;-64
2023/04/25 06:08:33;;;;;;;;;17.00;17.00;;;;;11.23;64.89;100559.88;4958524;28;45420;-62
2023/04/25 06:10:58;;;;;;;;;16.25;16.25;;;;;11.20;65.14;100560.00;4958486;28;45478;-62
2023/04/25 06:13:24;;;;;;;;;14.33;14.33;;;;;11.17;65.09;100565.34;4958578;28;45474;-61
2023/04/25 06:15:49;;;;;;;;;15.25;15.25;;;;;11.14;65.30;100564.63;4958712;28;45549;-61
2023/04/25 06:18:14;;;;;;;;;18.00;15.67;;;;;11.14;64.99;100565.47;4957899;28;45497;-61
2023/04/25 06:20:40;;;;;;;;;15.67;13.00;;;;;11.11;64.78;100560.34;4958399;28;45418;-61
2023/04/25 06:23:05;;;;;;;;;15.50;15.50;;;;;11.14;64.69;100557.59;4959279;28;45418;-61
2023/04/25 06:25:31;;;;;;;;;16.25;14.00;;;;;11.17;64.88;100557.47;4958169;28;45407;-61
2023/04/25 06:27:56;;;;;;;;;21.75;18.75;;;;;11.20;65.21;100562.63;4958183;28;45378;-62
2023/04/25 06:30:25;;;;;;;;;19.00;15.00;;;;;11.21;65.28;100559.06;4957330;28;53660;-62
2023/04/25 06:32:54;;;;;;;;;16.25;16.25;;;;;11.20;64.78;100553.84;4958645;28;45415;-61
2023/04/25 06:35:19;;;;;;;;;13.25;12.75;;;;;11.20;64.85;100560.00;4958136;28;45365;-62
2023/04/25 06:37:45;;;;;;;;;18.33;18.33;;;;;11.22;64.23;100557.28;4958051;28;45571;-62
2023/04/25 06:40:10;;;;;;;;;18.00;16.33;;;;;11.24;65.46;100568.63;4958117;28;45475;-61
2023/04/25 06:42:36;;;;;;;;;15.50;14.75;;;;;11.26;65.08;100566.81;4958171;28;45384;-62
2023/04/25 06:45:02;;;;;;;;;15.67;15.67;;;;;11.26;64.53;100567.66;4957082;28;45341;-62
2023/04/25 06:47:27;;;;;;;;;13.67;11.67;;;;;11.25;64.96;100555.38;4958025;28;45493;-62
2023/04/25 06:49:52;;;;;;;;;14.00;13.00;;;;;11.30;64.73;100563.13;4957309;28;45435;-62
2023/04/25 06:52:18;;;;;;;;;14.25;13.00;;;;;11.30;64.46;100572.78;4957737;28;48461;-61
2023/04/25 06:54:43;;;;;;;;;12.00;12.00;;;;;11.28;64.29;100568.47;4958051;28;45625;-61
2023/04/25 06:57:09;;;;;;;;;11.67;11.67;;;;;11.33;62.98;100577.94;4957897;28;45501;-62
2023/04/25 06:59:34;;;;;;;;;14.00;11.00;;;;;11.32;63.52;100592.03;4957604;28;45410;-62
2023/04/25 07:01:59;;;;;;;;;12.67;11.00;;;;;11.26;62.99;100574.69;4958078;28;45477;-62
2023/04/25 07:04:25;;;;;;;;;6.67;6.33;;;;;11.24;63.24;100584.41;4958026;28;45522;-62
2023/04/25 07:06:51;;;;;;;;;8.67;8.67;;;;;11.24;63.06;100585.28;4957469;28;45521;-62
2023/04/25 07:09:16;;;;;;;;;8.00;8.00;;;;;11.26;63.64;100598.41;4957982;28;45522;-61
2023/04/25 07:11:42;;;;;;;;;9.00;9.00;;;;;11.26;62.97;100598.41;4957469;28;45470;-61
2023/04/25 07:14:07;;;;;;;;;13.67;10.00;;;;;11.22;62.71;100602.91;4957611;28;45681;-61
2023/04/25 07:16:32;;;;;;;;;8.67;8.67;;;;;11.26;62.85;100601.88;4957067;28;53853;-61
2023/04/25 07:18:59;;;;;;;;;16.00;10.67;;;;;11.30;63.12;100602.59;4957586;28;45542;-62
2023/04/25 07:21:25;;;;;;;;;14.33;14.33;;;;;11.26;61.71;100603.66;4957796;28;45416;-61
2023/04/25 07:23:50;;;;;;;;;11.67;9.33;;;;;11.26;62.92;100612.41;4958322;28;45376;-62
2023/04/25 07:26:16;;;;;;;;;17.00;16.33;;;;;11.26;62.96;100615.03;4957032;28;45375;-62
2023/04/25 07:28:42;;;;;;;;;16.00;14.75;;;;;11.26;63.07;100615.03;4957200;28;45438;-62
2023/04/25 07:31:07;;;;;;;;;18.33;16.33;;;;;11.27;62.46;100626.44;4957578;28;45391;-62
2023/04/25 07:33:33;;;;;;;;;19.00;18.25;;;;;11.22;62.64;100628.38;4957226;28;45449;-62
2023/04/25 07:35:59;;;;;;;;;20.25;16.00;;;;;11.20;63.00;100630.19;4957344;28;45706;-61
2023/04/25 07:38:24;;;;;;;;;24.00;20.75;;;;;11.15;62.51;100633.03;4957238;28;45493;-62
2023/04/25 07:40:49;;;;;;;;;21.75;20.75;;;;;11.08;62.79;100633.28;4956666;28;45422;-62
2023/04/25 07:43:16;;;;;;;;;26.75;24.25;;;;;11.04;63.06;100627.25;4957211;28;45474;-62
2023/04/25 07:45:46;;;;;;;;;21.50;18.75;;;;;11.00;62.14;100647.59;4956960;28;45837;-62
2023/04/25 07:48:11;;;;;;;;;21.75;20.75;;;;;10.93;62.26;100653.97;4957043;28;45429;-62
2023/04/25 07:50:40;;;;;;;;;22.75;22.75;;;;;10.93;62.67;100650.50;4956975;28;45531;-64
2023/04/25 07:53:05;;;;;;;;;24.75;23.00;;;;;10.93;63.00;100661.88;4957390;28;45541;-62
2023/04/25 07:55:30;;;;;;;;;26.00;23.25;;;;;10.95;62.98;100669.72;4957019;28;45446;-62
2023/04/25 07:57:56;;;;;;;;;21.25;20.25;;;;;11.00;62.92;100668.63;4956570;28;45425;-62
2023/04/25 08:00:21;;;;;;;;;28.00;26.75;;;;;11.00;62.40;100671.28;4957272;28;45502;-62
2023/04/25 08:02:46;;;;;;;;;21.50;20.75;;;;;11.01;62.52;100683.50;4956683;28;47894;-62
2023/04/25 08:05:14;;;;;;;;;25.25;24.00;;;;;10.98;62.57;100674.88;4956678;28;52630;-63
2023/04/25 08:07:40;;;;;;;;;25.00;22.00;;;;;11.05;61.25;100690.38;4956936;28;45451;-63
2023/04/25 08:10:06;;;;;;;;;23.50;23.25;;;;;11.07;61.46;100698.25;4956730;28;45532;-63
2023/04/25 08:12:32;;;;;;;;;22.50;20.75;;;;;11.08;61.07;100705.22;4956990;28;45634;-62
2023/04/25 08:14:57;;;;;;;;;21.75;21.75;;;;;11.04;60.67;100704.47;4956635;28;45544;-62
2023/04/25 08:17:22;;;;;;;;;21.75;20.50;;;;;11.15;60.07;100716.38;4956432;28;48560;-62
2023/04/25 08:19:48;;;;;;;;;21.50;18.00;;;;;11.18;60.49;100716.28;4956745;28;45424;-62
2023/04/25 08:22:13;;;;;;;;;16.25;16.25;;;;;11.20;59.75;100724.97;4956887;28;45636;-62
2023/04/25 08:24:38;;;;;;;;;21.75;20.00;;;;;11.12;59.19;100712.06;4957116;28;46077;-62
2023/04/25 08:27:04;;;;;;;;;22.00;20.00;;;;;11.16;60.14;100724.22;4956242;28;45408;-62
2023/04/25 08:29:29;;;;;;;;;22.00;19.00;;;;;11.18;59.49;100716.28;4956487;28;45351;-62
2023/04/25 08:31:54;;;;;;;;;21.25;19.25;;;;;11.24;59.22;100723.94;4956462;28;45470;-62
2023/04/25 08:34:20;;;;;;;;;22.75;18.25;;;;;11.15;60.07;100717.25;4955207;28;45728;-62
2023/04/25 08:36:45;;;;;;;;;21.25;18.50;;;;;11.22;60.43;100728.41;4956511;28;45371;-62
2023/04/25 08:39:11;;;;;;;;;20.50;18.25;;;;;11.24;60.22;100737.97;4956358;28;45732;-62
2023/04/25 08:41:37;;;;;;;;;13.50;12.00;;;;;11.30;60.06;100734.25;4956375;28;45446;-62
2023/04/25 08:44:03;;;;;;;;;18.00;16.50;;;;;11.30;59.49;100731.63;4956239;28;45486;-62
2023/04/25 08:46:31;;;;;;;;;20.25;17.25;;;;;11.29;58.56;100729.91;4956018;28;45454;-62
2023/04/25 08:49:00;;;;;;;;;16.67;14.33;;;;;11.35;58.19;100742.00;4956004;28;45395;-62
2023/04/25 08:51:28;;;;;;;;;17.00;13.67;;;;;11.39;57.92;100740.94;4956041;28;45580;-62
2023/04/25 08:53:53;;;;;;;;;16.33;15.00;;;;;11.35;57.28;100734.94;4955752;28;45450;-62
2023/04/25 08:56:23;;;;;;;;;16.33;15.67;;;;;11.35;58.14;100740.22;4956283;28;45512;-62
2023/04/25 08:58:52;;;;;;;;;15.67;12.67;;;;;11.40;59.02;100754.06;4956215;28;45550;-62
2023/04/25 09:01:18;;;;;;;;;18.33;13.33;;;;;11.45;58.20;100751.28;4955901;28;45580;-62
2023/04/25 09:03:44;;;;;;;;;13.67;13.33;;;;;11.49;58.63;100761.63;4955998;28;45960;-62
2023/04/25 09:06:11;;;;;;;;;18.75;18.75;;;;;11.51;58.44;100764.22;4955733;28;45430;-62
2023/04/25 09:08:39;;;;;;;;;18.67;16.67;;;;;11.49;58.36;100772.16;4956023;28;45428;-62
2023/04/25 09:11:06;;;;;;;;;17.00;15.67;;;;;11.48;59.08;100775.72;4955832;28;45566;-62
2023/04/25 09:13:31;;;;;;;;;22.00;19.33;;;;;11.45;58.01;100775.84;4955715;28;46029;-62
2023/04/25 09:15:57;;;;;;;;;20.00;18.50;;;;;11.52;59.02;100788.78;4955857;28;45438;-62
2023/04/25 09:18:28;;;;;;;;;17.00;15.67;;;;;11.49;58.21;100795.88;4955809;28;45474;-62
2023/04/25 09:20:55;;;;;;;;;18.33;16.00;;;;;11.44;58.02;100799.59;4955881;28;45463;-62
2023/04/25 09:23:23;;;;;;;;;17.00;14.33;;;;;11.46;58.07;100801.25;4955898;28;45482;-62
2023/04/25 09:25:50;;;;;;;;;25.25;25.00;;;;;11.47;57.82;100802.09;4955543;28;45513;-62
2023/04/25 09:28:16;;;;;;;;;17.00;17.00;;;;;11.52;58.61;100800.16;4955571;28;45411;-62
2023/04/25 09:30:42;;;;;;;;;17.67;16.33;;;;;11.54;58.10;100805.41;4955927;28;45465;-63
2023/04/25 09:33:11;;;;;;;;;17.33;12.67;;;;;11.55;57.53;100820.28;4955786;28;45461;-62
2023/04/25 09:35:38;;;;;;;;;18.00;18.00;;;;;11.59;58.26;100820.13;4955550;28;45486;-62
2023/04/25 09:38:10;;;;;;;;;16.33;16.33;;;;;11.65;58.43;100814.63;4955880;28;45458;-62
2023/04/25 09:40:39;;;;;;;;;16.67;15.67;;;;;11.67;57.93;100815.44;4955402;28;45606;-62
2023/04/25 09:43:09;;;;;;;;;13.33;13.33;;;;;11.72;57.68;100821.41;4955482;28;45523;-62
2023/04/25 09:45:41;;;;;;;;;12.33;10.33;;;;;11.69;58.21;100826.78;4955349;28;45518;-62
2023/04/25 09:48:07;;;;;;;;;13.33;11.00;;;;;11.70;57.85;100825.00;4955582;28;45406;-62
2023/04/25 09:50:32;;;;;;;;;11.67;11.00;;;;;11.73;57.42;100827.50;4955363;28;45367;-62
2023/04/25 09:53:07;;;;;;;;;15.67;14.00;;;;;11.76;57.62;100837.09;4953328;28;70302;-62
2023/04/25 09:55:34;;;;;;;;;11.00;11.00;;;;;11.77;56.20;100830.88;4955370;28;45510;-62
2023/04/25 09:58:05;;;;;;;;;14.00;13.00;;;;;11.69;56.37;100829.41;4953980;28;45555;-62
2023/04/25 10:00:31;;;;;;;;;10.33;10.33;;;;;11.72;57.17;100838.97;4955656;28;45439;-62
2023/04/25 10:02:59;;;;;;;;;10.00;10.00;;;;;11.71;56.74;100847.78;4955212;28;45503;-62
2023/04/25 10:05:26;;;;;;;;;13.33;10.00;;;;;11.69;56.18;100844.38;4957172;28;45535;-62
2023/04/25 10:07:53;;;;;;;;;13.00;11.67;;;;;11.74;57.67;100845.06;4958577;28;45486;-62
2023/04/25 10:10:19;;;;;;;;;13.00;12.33;;;;;11.73;56.41;100838.06;4958381;28;45461;-62
2023/04/25 10:12:45;;;;;;;;;13.33;11.67;;;;;11.79;56.14;100852.78;4958492;28;46123;-62
2023/04/25 10:15:11;;;;;;;;;13.00;11.00;;;;;11.78;56.69;100843.16;4958235;28;45462;-62
2023/04/25 10:17:36;;;;;;;;;13.00;11.00;;;;;11.88;56.00;100852.50;4957701;28;45455;-62
2023/04/25 10:20:09;;;;;;;;;10.33;10.33;;;;;11.92;56.02;100851.44;4958272;28;45317;-61
2023/04/25 10:22:41;;;;;;;;;16.00;12.33;;;;;11.95;55.87;100846.06;4957151;28;45529;-61
2023/04/25 10:25:08;;;;;;;;;9.33;9.33;;;;;12.02;54.71;100847.56;4958583;28;45459;-61
2023/04/25 10:27:34;;;;;;;;;11.33;10.00;;;;;12.03;54.44;100849.28;4958175;28;45392;-65
2023/04/25 10:30:04;;;;;;;;;12.00;12.00;;;;;11.96;54.97;100829.34;4958179;28;45387;-61
2023/04/25 10:32:33;;;;;;;;;11.33;11.00;;;;;12.09;53.91;100843.78;4944898;28;47250;-61
2023/04/25 10:35:13;;;;;;;;;9.67;9.67;;;;;12.06;53.23;100850.94;4958162;28;45601;-61
2023/04/25 10:37:56;;;;;;;;;12.00;11.00;;;;;12.09;53.81;100853.44;4958189;28;45452;-61
2023/04/25 10:40:22;;;;;;;;;18.67;15.00;;;;;12.03;54.63;100843.16;4957761;28;45441;-60
2023/04/25 10:42:48;;;;;;;;;16.33;14.33;;;;;12.07;54.62;100853.53;4957835;28;46540;-63
2023/04/25 10:45:14;;;;;;;;;13.67;13.33;;;;;12.00;54.28;100849.38;4958052;28;45402;-61
2023/04/25 10:47:48;;;;;;;;;15.33;11.00;;;;;12.01;54.13;100850.25;4957923;28;45793;-61
2023/04/25 10:50:17;;;;;;;;;15.33;11.67;;;;;12.06;55.47;100857.09;4957963;28;45568;-61
2023/04/25 10:52:44;;;;;;;;;14.67;13.33;;;;;12.11;54.66;100856.91;4957730;28;46158;-62
2023/04/25 10:55:09;;;;;;;;;16.67;14.33;;;;;12.15;55.17;100859.38;4957509;28;45421;-61
2023/04/25 10:57:41;;;;;;;;;13.67;13.00;;;;;12.15;54.85;100854.09;4957506;28;45419;-61
2023/04/25 11:00:18;;;;;;;;;13.33;10.33;;;;;12.20;54.95;100864.47;4957532;28;45555;-61
2023/04/25 11:02:57;;;;;;;;;15.33;13.67;;;;;12.22;54.93;100865.25;4957291;28;45453;-61
2023/04/25 11:05:31;;;;;;;;;19.33;16.00;;;;;12.22;55.09;100865.25;4957718;28;45494;-61
2023/04/25 11:07:57;;;;;;;;;11.67;11.67;;;;;12.25;54.78;100867.81;4957428;28;45368;-61
2023/04/25 11:10:29;;;;;;;;;10.00;10.00;;;;;12.25;54.11;100866.91;4957508;28;45411;-61